createdAt,value
2023-12-16T00:02:09.474Z,95.62
2023-12-16T00:04:37.106Z,96.15
2023-12-16T00:07:04.165Z,95.62
2023-12-16T00:09:30.887Z,96.29
2023-12-16T00:11:58.166Z,96.61
2023-12-16T00:14:25.208Z,95.94
2023-12-16T00:16:51.959Z,96.46
2023-12-16T00:19:18.767Z,95.72
2023-12-16T00:21:45.529Z,96.04
2023-12-16T00:24:12.234Z,96.06
2023-12-16T00:26:38.937Z,96.58
2023-12-16T00:29:05.642Z,96.15
2023-12-16T00:31:32.371Z,95.94
2023-12-16T00:33:59.232Z,96.14
2023-12-16T00:36:26.183Z,96.04
2023-12-16T00:38:52.980Z,95.43
2023-12-16T00:41:19.660Z,95.09
2023-12-16T00:43:46.472Z,95.54
2023-12-16T00:46:13.151Z,95.39
2023-12-16T00:48:40.042Z,94.55
2023-12-16T00:51:07.029Z,95.72
2023-12-16T00:53:33.685Z,95.09
2023-12-16T00:56:00.386Z,94.66
2023-12-16T00:58:27.086Z,95.07
2023-12-16T01:00:54.067Z,95.65
2023-12-16T01:03:20.910Z,94.97
2023-12-16T01:05:47.750Z,95.51
2023-12-16T01:08:14.660Z,95.26
2023-12-16T01:10:41.534Z,95.04
2023-12-16T01:13:08.242Z,94.21
2023-12-16T01:15:35.032Z,94.82
2023-12-16T01:18:01.977Z,94.22
2023-12-16T01:20:28.903Z,94.44
2023-12-16T01:22:55.644Z,95.28
2023-12-16T01:25:22.410Z,94.92
2023-12-16T01:27:49.363Z,94.44
2023-12-16T01:30:16.441Z,95.03
2023-12-16T01:32:43.317Z,94.89
2023-12-16T01:35:10.160Z,94.07
2023-12-16T01:37:37.286Z,94.62
2023-12-16T01:40:05.058Z,94.59
2023-12-16T01:42:31.762Z,93.46
2023-12-16T01:44:58.660Z,94.47
2023-12-16T01:47:25.693Z,94.51
2023-12-16T01:49:55.802Z,94.51
2023-12-16T01:52:22.788Z,94.48
2023-12-16T01:54:49.753Z,94.76
2023-12-16T01:57:16.733Z,95.04
2023-12-16T01:59:43.795Z,93.96
2023-12-16T02:02:12.050Z,94.28
2023-12-16T02:04:38.928Z,94.80
2023-12-16T02:07:06.511Z,95.13
2023-12-16T02:09:33.384Z,94.21
2023-12-16T02:12:00.100Z,95.54
2023-12-16T02:14:27.001Z,94.39
2023-12-16T02:16:53.643Z,94.83
2023-12-16T02:19:26.336Z,94.28
2023-12-16T02:21:56.168Z,95.45
2023-12-16T02:24:23.095Z,94.59
2023-12-16T02:26:49.903Z,94.79
2023-12-16T02:29:18.826Z,95.38
2023-12-16T02:31:46.105Z,95.77
2023-12-16T02:34:13.164Z,95.93
2023-12-16T02:36:40.124Z,95.61
2023-12-16T02:39:06.851Z,95.94
2023-12-16T02:41:33.694Z,96.06
2023-12-16T02:44:00.530Z,95.91
2023-12-16T02:46:27.351Z,96.08
2023-12-16T02:48:54.241Z,95.77
2023-12-16T02:51:21.364Z,95.70
2023-12-16T02:53:48.342Z,95.86
2023-12-16T02:56:15.121Z,95.10
2023-12-16T02:58:41.841Z,95.47
2023-12-16T03:01:08.741Z,96.15
2023-12-16T03:03:38.425Z,95.38
2023-12-16T03:06:06.665Z,95.04
2023-12-16T03:08:34.500Z,94.98
2023-12-16T03:11:03.053Z,95.18
2023-12-16T03:13:29.813Z,95.06
2023-12-16T03:15:56.717Z,95.28
2023-12-16T03:18:23.620Z,94.90
2023-12-16T03:20:50.971Z,94.07
2023-12-16T03:23:17.888Z,94.57
2023-12-16T03:25:44.630Z,94.06
2023-12-16T03:28:12.223Z,93.81
2023-12-16T03:30:40.863Z,94.30
2023-12-16T03:33:08.957Z,93.24
2023-12-16T03:35:36.223Z,93.91
2023-12-16T03:38:03.165Z,93.05
2023-12-16T03:40:30.074Z,93.68
2023-12-16T03:42:57.206Z,94.09
2023-12-16T03:45:24.327Z,94.24
2023-12-16T03:47:50.999Z,94.45
2023-12-16T03:50:17.725Z,93.91
2023-12-16T03:52:44.402Z,94.83
2023-12-16T03:55:11.156Z,94.05
2023-12-16T03:57:38.046Z,94.80
2023-12-16T04:00:05.811Z,94.85
2023-12-16T04:02:32.552Z,94.27
2023-12-16T04:04:59.381Z,94.68
2023-12-16T04:07:26.114Z,95.27
2023-12-16T04:09:52.974Z,95.42
2023-12-16T04:12:19.746Z,94.21
2023-12-16T04:14:46.477Z,95.45
2023-12-16T04:17:13.258Z,95.29
2023-12-16T04:19:40.163Z,94.39
2023-12-16T04:22:07.059Z,94.11
2023-12-16T04:24:33.842Z,94.07
2023-12-16T04:27:00.574Z,94.62
2023-12-16T04:29:27.242Z,93.88
2023-12-16T04:31:54.012Z,94.56
2023-12-16T04:34:20.810Z,93.07
2023-12-16T04:36:47.567Z,94.37
2023-12-16T04:39:14.256Z,93.65
2023-12-16T04:41:41.117Z,93.11
2023-12-16T04:44:07.930Z,93.24
2023-12-16T04:46:34.787Z,93.35
2023-12-16T04:49:01.595Z,93.30
2023-12-16T04:51:28.591Z,94.20
2023-12-16T04:53:56.442Z,93.61
2023-12-16T04:56:23.591Z,94.11
2023-12-16T04:58:50.366Z,94.63
2023-12-16T05:01:17.530Z,94.11
2023-12-16T05:03:44.358Z,93.61
2023-12-16T05:06:11.226Z,94.22
2023-12-16T05:08:37.968Z,94.46
2023-12-16T05:11:04.887Z,94.60
2023-12-16T05:13:31.674Z,93.74
2023-12-16T05:15:58.367Z,94.55
2023-12-16T05:18:25.391Z,94.50
2023-12-16T05:20:52.142Z,94.51
2023-12-16T05:23:18.828Z,93.86
2023-12-16T05:25:45.556Z,94.15
2023-12-16T05:28:12.261Z,94.21
2023-12-16T05:30:39.226Z,94.89
2023-12-16T05:33:06.060Z,95.12
2023-12-16T05:35:33.489Z,94.52
2023-12-16T05:38:00.324Z,95.38
2023-12-16T05:40:27.175Z,95.10
2023-12-16T05:42:53.954Z,95.75
2023-12-16T05:45:20.718Z,95.51
2023-12-16T05:47:47.426Z,95.59
2023-12-16T05:50:14.299Z,95.85
2023-12-16T05:52:41.081Z,95.76
2023-12-16T05:55:08.373Z,95.13
2023-12-16T05:57:35.092Z,95.99
2023-12-16T06:00:01.827Z,95.21
2023-12-16T06:02:28.529Z,95.42
2023-12-16T06:04:55.249Z,95.08
2023-12-16T06:07:22.046Z,96.03
2023-12-16T06:09:48.923Z,95.14
2023-12-16T06:12:15.689Z,95.95
2023-12-16T06:14:42.337Z,95.17
2023-12-16T06:17:09.178Z,95.16
2023-12-16T06:19:35.983Z,95.32
2023-12-16T06:22:02.833Z,95.55
2023-12-16T06:24:29.633Z,97.21
2023-12-16T06:26:56.515Z,96.49
2023-12-16T06:29:23.160Z,97.05
2023-12-16T06:31:49.861Z,97.64
2023-12-16T06:34:16.830Z,98.05
2023-12-16T06:36:43.755Z,97.22
2023-12-16T06:39:10.464Z,96.59
2023-12-16T06:41:37.144Z,96.71
2023-12-16T06:44:03.975Z,96.39
2023-12-16T06:46:30.895Z,96.54
2023-12-16T06:48:58.230Z,96.59
2023-12-16T06:51:26.312Z,94.46
2023-12-16T06:53:53.069Z,93.64
2023-12-16T06:56:19.812Z,94.39
2023-12-16T06:58:46.536Z,91.53
2023-12-16T07:01:13.424Z,88.51
2023-12-16T07:03:40.320Z,86.81
2023-12-16T07:06:07.864Z,85.02
2023-12-16T07:08:34.654Z,84.75
2023-12-16T07:11:03.304Z,84.14
2023-12-16T07:13:30.142Z,82.49
2023-12-16T07:15:56.956Z,79.01
2023-12-16T07:18:23.728Z,73.95
2023-12-16T07:20:50.550Z,72.70
2023-12-16T07:23:17.290Z,69.56
2023-12-16T07:25:44.152Z,70.18
2023-12-16T07:28:11.082Z,70.11
2023-12-16T07:30:37.960Z,66.20
2023-12-16T07:33:04.882Z,66.71
2023-12-16T07:35:31.682Z,61.27
2023-12-16T07:37:58.368Z,58.05
2023-12-16T07:40:25.112Z,54.01
2023-12-16T07:42:51.925Z,53.12
2023-12-16T07:45:18.844Z,59.49
2023-12-16T07:47:46.047Z,62.41
2023-12-16T07:50:13.114Z,63.09
2023-12-16T07:52:39.806Z,65.80
2023-12-16T07:55:06.807Z,66.55
2023-12-16T07:57:33.552Z,66.88
2023-12-16T08:00:00.250Z,65.98
2023-12-16T08:02:27.123Z,61.82
2023-12-16T08:04:53.788Z,52.41
2023-12-16T08:07:21.690Z,47.88
2023-12-16T08:09:48.410Z,46.47
2023-12-16T08:12:15.289Z,47.64
2023-12-16T08:14:42.136Z,45.64
2023-12-16T08:17:08.910Z,43.50
2023-12-16T08:19:35.708Z,42.73
2023-12-16T08:22:02.783Z,43.36
2023-12-16T08:24:29.651Z,50.02
2023-12-16T08:26:56.401Z,50.25
2023-12-16T08:29:23.205Z,49.75
2023-12-16T08:31:49.919Z,45.33
2023-12-16T08:34:16.822Z,45.88
2023-12-16T08:36:43.619Z,45.45
2023-12-16T08:39:10.383Z,43.30
2023-12-16T08:41:37.059Z,44.28
2023-12-16T08:44:03.873Z,45.97
2023-12-16T08:46:30.619Z,42.85
2023-12-16T08:48:57.544Z,43.47
2023-12-16T08:51:24.620Z,43.49
2023-12-16T08:53:52.096Z,41.40
2023-12-16T08:56:18.888Z,42.44
2023-12-16T08:58:48.282Z,42.62
2023-12-16T09:01:15.227Z,47.28
2023-12-16T09:03:45.282Z,45.39
2023-12-16T09:06:12.166Z,44.47
2023-12-16T09:08:39.163Z,44.21
2023-12-16T09:11:06.094Z,43.03
2023-12-16T09:13:33.333Z,40.94
2023-12-16T09:16:00.319Z,46.83
2023-12-16T09:18:27.096Z,44.49
2023-12-16T09:20:53.936Z,40.54
2023-12-16T09:23:20.643Z,42.71
2023-12-16T09:25:47.430Z,45.28
2023-12-16T09:28:14.260Z,43.39
2023-12-16T09:30:41.342Z,40.69
2023-12-16T09:33:08.149Z,44.73
2023-12-16T09:35:35.083Z,46.23
2023-12-16T09:38:01.778Z,45.38
2023-12-16T09:40:28.751Z,47.83
2023-12-16T09:43:00.491Z,48.97
2023-12-16T09:45:27.493Z,46.83
2023-12-16T09:47:54.286Z,44.65
2023-12-16T09:50:20.994Z,47.72
2023-12-16T09:52:47.752Z,49.05
2023-12-16T09:55:14.758Z,51.15
2023-12-16T09:57:43.469Z,49.20
2023-12-16T10:00:10.803Z,48.07
2023-12-16T10:02:38.774Z,48.01
2023-12-16T10:05:07.414Z,48.88
2023-12-16T10:07:34.253Z,50.32
2023-12-16T10:10:01.109Z,52.76
2023-12-16T10:12:33.876Z,52.97
2023-12-16T10:15:00.787Z,53.11
2023-12-16T10:17:27.513Z,49.64
2023-12-16T10:19:54.430Z,52.39
2023-12-16T10:22:22.025Z,52.20
2023-12-16T10:24:48.888Z,51.12
2023-12-16T10:27:16.348Z,46.55
2023-12-16T10:29:53.920Z,49.56
2023-12-16T10:32:29.908Z,47.61
2023-12-16T10:34:56.685Z,46.49
2023-12-16T10:37:23.360Z,49.00
2023-12-16T10:39:50.186Z,49.14
2023-12-16T10:42:16.844Z,49.04
2023-12-16T10:44:43.593Z,45.25
2023-12-16T10:47:12.552Z,48.02
2023-12-16T10:49:45.064Z,48.46
2023-12-16T10:52:13.785Z,51.95
2023-12-16T10:54:42.163Z,52.01
2023-12-16T10:57:25.524Z,50.33
2023-12-16T11:00:17.931Z,49.19
2023-12-16T11:02:50.364Z,51.26
2023-12-16T11:05:43.092Z,53.35
2023-12-16T11:08:10.175Z,49.76
2023-12-16T11:10:37.248Z,48.81
2023-12-16T11:13:05.378Z,48.63
2023-12-16T11:15:34.199Z,45.20
2023-12-16T11:18:20.838Z,46.27
2023-12-16T11:20:53.113Z,47.40
2023-12-16T11:23:20.348Z,42.63
2023-12-16T11:25:48.971Z,39.51
2023-12-16T11:28:15.835Z,32.38
2023-12-16T11:30:42.831Z,29.69
2023-12-16T11:33:09.773Z,27.91
2023-12-16T11:35:36.640Z,27.83
2023-12-16T11:38:04.210Z,28.68
2023-12-16T11:40:46.449Z,26.41
2023-12-16T11:43:13.721Z,28.38
2023-12-16T11:45:42.985Z,36.92
2023-12-16T11:48:12.527Z,41.54
2023-12-16T11:50:46.463Z,43.92
2023-12-16T11:53:15.395Z,44.41
2023-12-16T11:55:42.570Z,47.79
2023-12-16T11:58:09.340Z,48.67
2023-12-16T12:00:36.388Z,49.39
2023-12-16T12:03:06.027Z,49.93
2023-12-16T12:05:35.194Z,51.56
2023-12-16T12:08:02.383Z,51.37
2023-12-16T12:10:29.204Z,52.51
2023-12-16T12:12:57.348Z,51.96
2023-12-16T12:15:24.056Z,53.28
2023-12-16T12:17:51.132Z,54.91
2023-12-16T12:20:19.254Z,52.78
2023-12-16T12:22:46.448Z,53.71
2023-12-16T12:27:49.693Z,55.05
2023-12-16T12:30:17.738Z,56.08
2023-12-16T12:32:44.717Z,56.65
2023-12-16T12:35:11.610Z,55.87
2023-12-16T12:37:40.243Z,57.28
2023-12-16T12:40:19.779Z,57.53
2023-12-16T12:42:49.504Z,57.19
2023-12-16T12:45:26.559Z,59.22
2023-12-16T12:48:09.014Z,58.83
2023-12-16T12:50:36.036Z,60.36
2023-12-16T12:53:23.087Z,59.97
2023-12-16T12:55:52.298Z,60.11
2023-12-16T12:58:23.136Z,61.01
2023-12-16T13:00:54.844Z,60.02
2023-12-16T13:03:21.730Z,59.36
2023-12-16T13:05:48.865Z,58.32
2023-12-16T13:08:15.763Z,59.65
2023-12-16T13:10:42.618Z,59.84
2023-12-16T13:13:09.543Z,60.76
2023-12-16T13:15:53.254Z,59.88
2023-12-16T13:18:23.600Z,61.01
2023-12-16T13:20:50.700Z,60.98
2023-12-16T13:23:17.777Z,60.27
2023-12-16T13:25:44.529Z,61.60
2023-12-16T13:28:11.418Z,60.01
2023-12-16T13:30:38.193Z,62.49
2023-12-16T13:33:05.254Z,61.34
2023-12-16T13:35:32.078Z,63.40
2023-12-16T13:37:59.369Z,63.95
2023-12-16T13:40:26.065Z,63.67
2023-12-16T13:42:52.800Z,63.19
2023-12-16T13:45:19.633Z,62.17
2023-12-16T13:47:46.580Z,63.48
2023-12-16T13:50:13.678Z,63.25
2023-12-16T13:52:40.384Z,63.36
2023-12-16T13:55:07.453Z,62.94
2023-12-16T13:57:34.256Z,62.77
2023-12-16T14:00:01.202Z,62.20
2023-12-16T14:02:28.224Z,63.69
2023-12-16T14:04:54.891Z,63.25
2023-12-16T14:07:21.655Z,64.43
2023-12-16T14:09:48.508Z,64.35
2023-12-16T14:12:15.345Z,64.46
2023-12-16T14:14:42.024Z,66.45
2023-12-16T14:17:08.939Z,66.98
2023-12-16T14:19:37.669Z,65.60
2023-12-16T14:22:04.888Z,67.88
2023-12-16T14:24:31.554Z,67.79
2023-12-16T14:26:58.450Z,67.30
2023-12-16T14:29:25.372Z,68.79
2023-12-16T14:31:52.399Z,68.19
2023-12-16T14:34:19.418Z,69.30
2023-12-16T14:36:46.417Z,69.08
2023-12-16T14:39:13.297Z,70.39
2023-12-16T14:41:41.133Z,71.56
2023-12-16T14:44:08.397Z,71.33
2023-12-16T14:46:35.074Z,72.33
2023-12-16T14:49:01.902Z,72.22
2023-12-16T14:51:28.717Z,70.48
2023-12-16T14:53:55.615Z,73.85
2023-12-16T14:56:22.833Z,75.04
2023-12-16T14:58:49.809Z,73.72
2023-12-16T15:01:23.635Z,73.76
2023-12-16T15:03:50.437Z,74.57
2023-12-16T15:06:25.563Z,74.77
2023-12-16T15:08:56.606Z,74.70
2023-12-16T15:11:23.640Z,75.07
2023-12-16T15:13:50.461Z,76.10
2023-12-16T15:16:20.370Z,76.08
2023-12-16T15:18:48.580Z,77.75
2023-12-16T15:21:15.965Z,75.94
2023-12-16T15:23:42.734Z,76.47
2023-12-16T15:26:09.565Z,76.17
2023-12-16T15:28:36.384Z,76.04
2023-12-16T15:31:03.272Z,77.35
2023-12-16T15:33:30.504Z,77.26
2023-12-16T15:35:57.498Z,77.56
2023-12-16T15:38:24.445Z,77.42
2023-12-16T15:40:51.168Z,77.92
2023-12-16T15:43:18.000Z,77.78
2023-12-16T15:45:44.760Z,78.79
2023-12-16T15:48:11.643Z,78.97
2023-12-16T15:50:39.695Z,78.61
2023-12-16T15:53:06.660Z,80.18
2023-12-16T15:55:33.450Z,80.39
2023-12-16T15:58:00.296Z,81.44
2023-12-16T16:00:27.042Z,81.72
2023-12-16T16:02:53.771Z,81.84
2023-12-16T16:05:22.273Z,82.76
2023-12-16T16:07:49.942Z,81.79
2023-12-16T16:10:16.961Z,81.93
2023-12-16T16:12:43.851Z,84.94
2023-12-16T16:15:17.259Z,85.30
2023-12-16T16:17:46.916Z,84.23
2023-12-16T16:20:14.453Z,83.92
2023-12-16T16:22:41.284Z,85.59
2023-12-16T16:25:10.413Z,86.84
2023-12-16T16:27:39.024Z,86.98
2023-12-16T16:30:06.779Z,84.69
2023-12-16T16:32:33.948Z,84.92
2023-12-16T16:35:00.856Z,86.03
2023-12-16T16:37:31.189Z,85.47
2023-12-16T16:39:59.080Z,84.75
2023-12-16T16:42:25.902Z,84.85
2023-12-16T16:44:52.563Z,86.23
2023-12-16T16:47:19.329Z,85.24
2023-12-16T16:49:46.175Z,86.80
2023-12-16T16:52:13.288Z,85.61
2023-12-16T16:54:40.016Z,85.24
2023-12-16T16:57:06.664Z,85.63
2023-12-16T16:59:33.495Z,86.99
2023-12-16T17:02:00.359Z,87.35
2023-12-16T17:04:27.245Z,88.67
2023-12-16T17:06:54.076Z,88.37
2023-12-16T17:09:20.988Z,86.80
2023-12-16T17:11:47.708Z,87.65
2023-12-16T17:14:14.373Z,87.44
2023-12-16T17:16:42.311Z,89.32
2023-12-16T17:19:10.689Z,88.21
2023-12-16T17:21:37.808Z,89.23
2023-12-16T17:24:05.199Z,88.90
2023-12-16T17:26:31.949Z,88.17
2023-12-16T17:28:58.636Z,88.83
2023-12-16T17:31:25.296Z,89.50
2023-12-16T17:33:52.222Z,89.75
2023-12-16T17:36:18.897Z,89.76
2023-12-16T17:38:45.742Z,89.20
2023-12-16T17:41:12.549Z,90.13
2023-12-16T17:43:39.244Z,88.76
2023-12-16T17:46:06.007Z,89.05
2023-12-16T17:48:32.748Z,89.84
2023-12-16T17:50:59.787Z,89.89
2023-12-16T17:53:26.544Z,91.05
2023-12-16T17:55:53.400Z,90.51
2023-12-16T17:58:20.132Z,89.38
2023-12-16T18:00:47.162Z,89.74
2023-12-16T18:03:14.038Z,90.92
2023-12-16T18:05:41.112Z,92.04
2023-12-16T18:08:08.320Z,92.65
2023-12-16T18:10:35.510Z,91.07
2023-12-16T18:13:02.206Z,91.78
2023-12-16T18:15:28.928Z,92.16
2023-12-16T18:17:55.745Z,91.44
2023-12-16T18:20:22.524Z,91.23
2023-12-16T18:22:49.196Z,92.07
2023-12-16T18:25:17.102Z,92.99
2023-12-16T18:27:44.004Z,92.45
2023-12-16T18:30:11.554Z,91.67
2023-12-16T18:32:38.554Z,92.36
2023-12-16T18:35:05.685Z,91.34
2023-12-16T18:37:32.455Z,92.60
2023-12-16T18:40:00.925Z,91.93
2023-12-16T18:42:28.421Z,92.01
2023-12-16T18:44:55.130Z,91.92
2023-12-16T18:47:21.866Z,91.24
2023-12-16T18:49:48.659Z,91.27
2023-12-16T18:52:15.384Z,90.51
2023-12-16T18:54:42.081Z,91.29
2023-12-16T18:57:08.912Z,91.42
2023-12-16T18:59:35.637Z,92.50
2023-12-16T19:02:02.374Z,92.66
2023-12-16T19:04:29.467Z,92.68
2023-12-16T19:06:56.341Z,92.70
2023-12-16T19:09:23.320Z,92.56
2023-12-16T19:11:50.139Z,92.59
2023-12-16T19:14:16.913Z,93.28
2023-12-16T19:16:43.721Z,93.17
2023-12-16T19:19:10.817Z,93.50
2023-12-16T19:21:37.651Z,93.15
2023-12-16T19:24:04.691Z,92.31
2023-12-16T19:26:31.501Z,92.84
2023-12-16T19:28:58.252Z,92.41
2023-12-16T19:31:24.915Z,91.54
2023-12-16T19:33:51.922Z,92.38
2023-12-16T19:36:18.776Z,92.76
2023-12-16T19:38:45.522Z,93.75
2023-12-16T19:41:12.215Z,92.29
2023-12-16T19:43:38.899Z,92.72
2023-12-16T19:46:05.708Z,92.19
2023-12-16T19:48:32.672Z,93.32
2023-12-16T19:50:59.733Z,91.87
2023-12-16T19:53:26.621Z,92.74
2023-12-16T19:55:53.371Z,92.08
2023-12-16T19:58:20.108Z,92.29
2023-12-16T20:00:46.806Z,92.17
2023-12-16T20:03:13.661Z,92.53
2023-12-16T20:05:40.500Z,91.92
2023-12-16T20:08:07.400Z,93.75
2023-12-16T20:10:34.264Z,92.48
2023-12-16T20:13:00.905Z,91.83
2023-12-16T20:15:27.680Z,93.44
2023-12-16T20:17:54.665Z,93.78
2023-12-16T20:20:21.643Z,93.27
2023-12-16T20:22:48.323Z,92.70
2023-12-16T20:25:15.262Z,92.14
2023-12-16T20:27:42.327Z,92.60
2023-12-16T20:30:09.456Z,91.89
2023-12-16T20:32:37.101Z,92.18
2023-12-16T20:35:04.230Z,91.53
2023-12-16T20:37:30.931Z,91.88
2023-12-16T20:39:57.574Z,90.99
2023-12-16T20:42:24.684Z,91.49
2023-12-16T20:44:51.480Z,91.37
2023-12-16T20:47:18.355Z,90.83
2023-12-16T20:49:45.135Z,90.92
2023-12-16T20:52:12.032Z,89.98
2023-12-16T20:54:38.665Z,89.75
2023-12-16T20:57:05.531Z,89.69
2023-12-16T20:59:32.212Z,88.46
2023-12-16T21:01:59.044Z,88.50
2023-12-16T21:04:25.788Z,88.69
2023-12-16T21:06:52.778Z,88.76
2023-12-16T21:09:19.632Z,87.75
2023-12-16T21:11:46.651Z,88.45
2023-12-16T21:14:13.424Z,88.40
2023-12-16T21:16:40.109Z,87.67
2023-12-16T21:19:06.902Z,88.39
2023-12-16T21:21:33.585Z,88.43
2023-12-16T21:24:00.376Z,88.32
2023-12-16T21:26:27.213Z,88.94
2023-12-16T21:28:53.975Z,88.91
2023-12-16T21:31:20.764Z,88.67
2023-12-16T21:33:47.772Z,89.30
2023-12-16T21:36:14.629Z,89.46
2023-12-16T21:38:41.788Z,89.20
2023-12-16T21:41:08.740Z,89.68
2023-12-16T21:43:35.619Z,89.37
2023-12-16T21:46:02.343Z,90.49
2023-12-16T21:48:29.180Z,89.68
2023-12-16T21:50:56.285Z,90.34
2023-12-16T21:53:23.141Z,89.49
2023-12-16T21:55:49.835Z,90.70
2023-12-16T21:58:16.721Z,89.88
2023-12-16T22:00:43.547Z,90.01
2023-12-16T22:03:10.288Z,91.51
2023-12-16T22:05:37.349Z,91.08
2023-12-16T22:08:06.688Z,90.63
2023-12-16T22:10:34.389Z,89.58
2023-12-16T22:13:01.060Z,90.10
2023-12-16T22:15:27.909Z,90.50
2023-12-16T22:17:54.843Z,89.62
2023-12-16T22:20:21.627Z,90.21
2023-12-16T22:22:48.370Z,90.06
2023-12-16T22:25:15.159Z,90.15
2023-12-16T22:27:42.016Z,90.71
2023-12-16T22:30:09.325Z,90.44
2023-12-16T22:32:36.036Z,91.11
2023-12-16T22:35:02.850Z,91.11
2023-12-16T22:37:29.597Z,91.91
2023-12-16T22:39:56.366Z,91.46
2023-12-16T22:42:23.194Z,91.64
2023-12-16T22:44:50.080Z,91.11
2023-12-16T22:47:16.848Z,91.07
2023-12-16T22:49:43.833Z,92.56
2023-12-16T22:52:10.993Z,91.52
2023-12-16T22:54:37.712Z,92.38
2023-12-16T22:57:04.906Z,91.79
2023-12-16T22:59:31.750Z,92.10
2023-12-16T23:01:58.506Z,91.70
2023-12-16T23:04:25.240Z,92.58
2023-12-16T23:06:51.934Z,92.84
2023-12-16T23:09:18.847Z,93.08
2023-12-16T23:11:45.784Z,92.01
2023-12-16T23:14:12.624Z,93.36
2023-12-16T23:16:39.440Z,93.23
2023-12-16T23:19:06.280Z,93.07
2023-12-16T23:21:33.033Z,93.10
2023-12-16T23:24:00.279Z,94.17
2023-12-16T23:26:27.227Z,94.54
2023-12-16T23:28:53.981Z,94.27
2023-12-16T23:31:20.835Z,94.86
2023-12-16T23:33:47.740Z,94.62
2023-12-16T23:36:14.490Z,95.70
2023-12-16T23:38:41.445Z,94.96
2023-12-16T23:41:15.095Z,94.78
2023-12-16T23:43:41.854Z,94.99
2023-12-16T23:46:12.737Z,95.54
2023-12-16T23:48:41.273Z,94.86
2023-12-16T23:51:08.181Z,94.51
2023-12-16T23:53:35.652Z,95.49
2023-12-16T23:56:03.033Z,95.39
2023-12-16T23:58:29.693Z,96.54
